Time;durP1;ratioP1;P1;durP2;ratioP2;P2;SDS_P1;SDS_P2;PMS_P1;PMS_P2;Temp;Humidity;BMP_temperature;BMP_pressure;BME280_temperature;BME280_humidity;BME280_pressure;Samples;Min_cycle;Max_cycle;Signal;HPM_P1;HPM_P2
2023/10/08 00:01:15;;;;;;;;;;;;;;;15.29;48.30;99685.38;5002541;28;20332;-72
2023/10/08 00:03:48;;;;;;;;;;;;;;;15.30;48.10;99678.56;5010339;28;19924;-72
2023/10/08 00:06:14;;;;;;;;;;;;;;;15.27;48.38;99670.84;5008236;28;19926;-72
2023/10/08 00:08:40;;;;;;;;;;;;;;;15.24;48.54;99665.09;5011437;28;19983;-72
2023/10/08 00:11:10;;;;;;;;;;;;;;;15.29;48.06;99660.00;5011703;28;19913;-72
2023/10/08 00:13:39;;;;;;;;;;;;;;;15.49;47.52;99659.28;5011591;28;19921;-71
2023/10/08 00:16:09;;;;;;;;;;;;;;;15.50;47.24;99655.28;5009986;28;19925;-72
2023/10/08 00:18:35;;;;;;;;;;;;;;;15.54;47.14;99656.22;5010085;28;19921;-72
2023/10/08 00:23:35;;;;;;;;;;;;;;;15.21;47.84;99655.41;5010311;28;19922;-72
2023/10/08 00:26:04;;;;;;;;;;;;;;;15.20;48.22;99650.91;5026682;28;19921;-72
2023/10/08 00:28:31;;;;;;;;;;;;;;;15.05;48.38;99651.72;5011074;28;19918;-72
2023/10/08 00:30:57;;;;;;;;;;;;;;;14.83;48.75;99649.13;5011200;28;19921;-73
2023/10/08 00:33:22;;;;;;;;;;;;;;;14.83;48.58;99656.75;5012285;28;19914;-73
2023/10/08 00:35:48;;;;;;;;;;;;;;;14.87;48.07;99652.06;5003725;28;20380;-72
2023/10/08 00:38:20;;;;;;;;;;;;;;;14.69;48.66;99657.97;5006214;28;19918;-72
2023/10/08 00:40:45;;;;;;;;;;;;;;;14.77;47.98;99663.84;5013969;28;20411;-72
2023/10/08 00:43:50;;;;;;;;;;;;;;;14.74;48.06;99663.38;5013508;28;19925;-72
2023/10/08 00:46:23;;;;;;;;;;;;;;;14.92;47.63;99651.00;5012746;28;19952;-72
2023/10/08 00:48:54;;;;;;;;;;;;;;;15.04;47.19;99647.25;4995433;28;20427;-72
2023/10/08 00:53:52;;;;;;;;;;;;;;;14.86;47.81;99644.78;5000216;28;20311;-72
2023/10/08 00:56:19;;;;;;;;;;;;;;;15.02;47.58;99647.63;5014622;28;20009;-72
2023/10/08 00:58:52;;;;;;;;;;;;;;;15.22;47.19;99640.13;5013572;28;19940;-72
2023/10/08 01:01:20;;;;;;;;;;;;;;;15.26;47.44;99641.03;5001167;28;20432;-72
2023/10/08 01:03:45;;;;;;;;;;;;;;;15.28;47.28;99644.28;4994824;28;20412;-72
2023/10/08 01:06:11;;;;;;;;;;;;;;;15.49;47.45;99642.38;5000670;28;19923;-72
2023/10/08 01:08:37;;;;;;;;;;;;;;;15.47;47.72;99639.94;5004171;28;20315;-72
2023/10/08 01:11:17;;;;;;;;;;;;;;;15.36;48.40;99636.03;5014391;28;20307;-72
2023/10/08 01:13:44;;;;;;;;;;;;;;;15.28;48.55;99637.84;5013869;28;19928;-72
2023/10/08 01:16:09;;;;;;;;;;;;;;;15.30;47.80;99630.66;5013223;28;20332;-72
2023/10/08 01:18:35;;;;;;;;;;;;;;;15.25;47.62;99633.75;5028216;28;19917;-72
2023/10/08 01:21:08;;;;;;;;;;;;;;;15.33;47.58;99633.94;5014196;28;19983;-72
2023/10/08 01:23:33;;;;;;;;;;;;;;;15.37;47.43;99630.00;5012065;28;20022;-72
2023/10/08 01:26:10;;;;;;;;;;;;;;;15.29;47.88;99623.38;5014050;28;20320;-72
2023/10/08 01:28:36;;;;;;;;;;;;;;;15.11;48.42;99622.91;5012651;28;20016;-73
2023/10/08 01:31:03;;;;;;;;;;;;;;;15.15;48.18;99617.38;5011750;28;20436;-72
2023/10/08 01:33:29;;;;;;;;;;;;;;;15.28;48.08;99629.41;5013975;28;19913;-72
2023/10/08 01:35:55;;;;;;;;;;;;;;;15.22;48.04;99622.38;5013714;28;20383;-72
2023/10/08 01:38:26;;;;;;;;;;;;;;;15.22;47.96;99628.84;5013561;28;19924;-72
2023/10/08 01:40:51;;;;;;;;;;;;;;;15.11;48.02;99619.31;4998404;28;19995;-72
2023/10/08 01:43:17;;;;;;;;;;;;;;;14.80;49.33;99616.09;5002646;28;20411;-72
2023/10/08 01:45:44;;;;;;;;;;;;;;;14.74;49.44;99620.31;5013072;28;19964;-72
2023/10/08 01:48:09;;;;;;;;;;;;;;;14.87;48.85;99612.63;5013488;28;20012;-72
2023/10/08 01:50:35;;;;;;;;;;;;;;;15.00;48.75;99608.56;5013673;28;20387;-72
2023/10/08 01:53:01;;;;;;;;;;;;;;;14.93;48.73;99605.53;5013463;28;19967;-72
2023/10/08 01:55:26;;;;;;;;;;;;;;;14.98;48.71;99596.84;5013377;28;19921;-72
2023/10/08 01:57:52;;;;;;;;;;;;;;;15.30;48.36;99598.84;5002882;28;20048;-72
2023/10/08 02:00:19;;;;;;;;;;;;;;;15.26;48.24;99595.94;5002231;28;19917;-72
2023/10/08 02:02:47;;;;;;;;;;;;;;;15.38;48.55;99602.66;5011933;28;19969;-72
2023/10/08 02:05:15;;;;;;;;;;;;;;;15.46;47.88;99606.47;5013278;28;19917;-72
2023/10/08 02:07:44;;;;;;;;;;;;;;;15.37;48.22;99601.84;5012948;28;20458;-72
2023/10/08 02:10:10;;;;;;;;;;;;;;;15.22;48.24;99611.13;5013348;28;19924;-72
2023/10/08 02:12:36;;;;;;;;;;;;;;;15.01;48.67;99607.38;5012948;28;19945;-72
2023/10/08 02:15:02;;;;;;;;;;;;;;;14.65;49.21;99606.38;5000886;28;20015;-72
2023/10/08 02:17:28;;;;;;;;;;;;;;;14.60;49.81;99595.41;5008101;28;19976;-72
2023/10/08 02:19:53;;;;;;;;;;;;;;;14.72;49.45;99594.53;5012790;28;20348;-72
2023/10/08 02:22:19;;;;;;;;;;;;;;;14.53;49.66;99598.00;5013132;28;20008;-72
2023/10/08 02:24:44;;;;;;;;;;;;;;;14.64;49.21;99592.66;5011317;28;20327;-72
2023/10/08 02:27:10;;;;;;;;;;;;;;;14.72;48.94;99583.28;5012954;28;19921;-72
2023/10/08 02:29:35;;;;;;;;;;;;;;;14.82;48.68;99591.19;5012817;28;19913;-73
2023/10/08 02:32:01;;;;;;;;;;;;;;;14.96;48.36;99584.31;5007632;28;19924;-72
2023/10/08 02:34:26;;;;;;;;;;;;;;;14.99;48.35;99583.56;5011378;28;20011;-72
2023/10/08 02:36:51;;;;;;;;;;;;;;;14.84;48.23;99600.09;5012618;28;19939;-72
2023/10/08 02:39:21;;;;;;;;;;;;;;;14.97;48.69;99600.00;5012228;28;20378;-72
2023/10/08 02:41:47;;;;;;;;;;;;;;;15.08;47.99;99595.47;5012785;28;19913;-72
2023/10/08 02:44:13;;;;;;;;;;;;;;;14.97;48.14;99598.03;5012291;28;19925;-72
2023/10/08 02:46:44;;;;;;;;;;;;;;;14.71;49.06;99604.13;5011638;28;19945;-72
2023/10/08 02:49:12;;;;;;;;;;;;;;;14.11;51.15;99597.19;5012087;28;19918;-72
2023/10/08 02:51:44;;;;;;;;;;;;;;;13.93;52.42;99593.03;5012261;28;20016;-72
2023/10/08 02:54:17;;;;;;;;;;;;;;;13.85;52.78;99587.19;5011099;28;19913;-72
2023/10/08 02:56:51;;;;;;;;;;;;;;;13.65;53.18;99586.16;5011465;28;19924;-72
2023/10/08 02:59:17;;;;;;;;;;;;;;;13.71;52.73;99590.41;5012382;28;19914;-72
2023/10/08 03:01:42;;;;;;;;;;;;;;;13.71;51.84;99590.41;5008434;28;20396;-72
2023/10/08 03:04:20;;;;;;;;;;;;;;;13.86;50.92;99588.81;5007377;28;19926;-72
2023/10/08 03:06:54;;;;;;;;;;;;;;;13.97;50.94;99591.16;4996216;28;19992;-72
2023/10/08 03:09:23;;;;;;;;;;;;;;;14.01;51.10;99586.47;5010634;28;20428;-73
2023/10/08 03:11:48;;;;;;;;;;;;;;;14.10;50.83;99586.31;5010567;28;19921;-72
2023/10/08 03:14:21;;;;;;;;;;;;;;;14.08;50.63;99581.03;5010601;28;19922;-73
2023/10/08 03:16:48;;;;;;;;;;;;;;;14.13;50.64;99583.63;5011270;28;20388;-73
2023/10/08 03:19:15;;;;;;;;;;;;;;;14.21;50.79;99572.56;5011337;28;19918;-72
2023/10/08 03:25:15;;;;;;;;;;;;;;;14.19;50.90;99572.94;4997348;28;19921;-72
2023/10/08 03:27:41;;;;;;;;;;;;;;;14.08;50.53;99571.81;5006995;28;20429;-73
2023/10/08 03:29:54;;;;;;;;;;;;;;;14.13;50.45;99569.56;5008808;28;19913;-72
2023/10/08 03:32:26;;;;;;;;;;;;;;;14.33;50.42;99566.88;5026838;28;20323;-72
2023/10/08 03:34:54;;;;;;;;;;;;;;;14.36;49.60;99571.81;5010930;28;20370;-73
2023/10/08 03:37:21;;;;;;;;;;;;;;;14.44;49.80;99575.66;5008407;28;19953;-72
2023/10/08 03:39:59;;;;;;;;;;;;;;;14.48;49.03;99578.53;5011549;28;19917;-72
2023/10/08 03:42:25;;;;;;;;;;;;;;;14.55;48.76;99578.75;5011721;28;19940;-72
2023/10/08 03:44:52;;;;;;;;;;;;;;;14.49;48.92;99568.94;5011734;28;20356;-72
2023/10/08 03:47:18;;;;;;;;;;;;;;;14.42;48.65;99569.53;5010572;28;19917;-72
2023/10/08 03:49:45;;;;;;;;;;;;;;;14.40;48.92;99569.91;5001657;28;20402;-72
2023/10/08 03:52:10;;;;;;;;;;;;;;;14.46;49.00;99574.09;5007594;28;19923;-72
2023/10/08 03:54:40;;;;;;;;;;;;;;;14.44;49.32;99568.00;4992817;28;19976;-72
2023/10/08 03:57:13;;;;;;;;;;;;;;;14.43;49.45;99568.38;5011803;28;19913;-72
2023/10/08 03:59:40;;;;;;;;;;;;;;;14.49;49.05;99564.13;5011694;28;19914;-72
2023/10/08 04:02:24;;;;;;;;;;;;;;;14.52;49.04;99565.41;5011337;28;20414;-72
2023/10/08 04:04:56;;;;;;;;;;;;;;;14.52;49.57;99563.41;5025307;28;19928;-72
2023/10/08 04:07:38;;;;;;;;;;;;;;;14.46;49.71;99567.66;5011428;28;20403;-72
2023/10/08 04:12:35;;;;;;;;;;;;;;;14.60;49.16;99572.88;4999691;28;20295;-73
2023/10/08 04:15:07;;;;;;;;;;;;;;;14.57;49.44;99567.94;5014881;28;20408;-72
2023/10/08 04:17:45;;;;;;;;;;;;;;;14.69;48.17;99567.88;5031772;28;20410;-72
2023/10/08 04:20:38;;;;;;;;;;;;;;;14.71;48.19;99573.16;5013825;28;20340;-72
2023/10/08 04:23:20;;;;;;;;;;;;;;;14.49;48.81;99581.00;5015273;28;19917;-72
2023/10/08 04:25:53;;;;;;;;;;;;;;;14.50;49.25;99581.84;5014853;28;19917;-72
2023/10/08 04:28:20;;;;;;;;;;;;;;;14.55;49.18;99578.75;5013812;28;19913;-72
2023/10/08 04:30:47;;;;;;;;;;;;;;;14.64;49.18;99573.78;5012297;28;20297;-72
2023/10/08 04:33:14;;;;;;;;;;;;;;;14.70;49.25;99574.34;5008828;28;20457;-73
2023/10/08 04:35:51;;;;;;;;;;;;;;;14.64;48.73;99573.78;5013857;28;20374;-72
2023/10/08 04:38:22;;;;;;;;;;;;;;;14.52;49.39;99582.28;5014737;28;20406;-72
2023/10/08 04:40:48;;;;;;;;;;;;;;;14.60;48.80;99565.25;5014613;28;20016;-73
2023/10/08 04:43:27;;;;;;;;;;;;;;;14.57;49.09;99573.56;5013489;28;19914;-73
2023/10/08 04:45:59;;;;;;;;;;;;;;;14.60;49.10;99564.44;5012204;28;19917;-73
2023/10/08 04:48:24;;;;;;;;;;;;;;;14.50;48.64;99579.03;5008502;28;20386;-73
2023/10/08 04:50:58;;;;;;;;;;;;;;;14.51;49.00;99584.28;4995176;28;19918;-73
2023/10/08 04:53:31;;;;;;;;;;;;;;;14.23;49.72;99589.91;5010759;28;19949;-73
2023/10/08 04:55:56;;;;;;;;;;;;;;;14.11;50.14;99587.97;5012976;28;19957;-73
2023/10/08 04:58:32;;;;;;;;;;;;;;;14.19;49.80;99592.63;5014602;28;19960;-73
2023/10/08 05:00:59;;;;;;;;;;;;;;;14.06;50.19;99582.56;5024751;28;19976;-73
2023/10/08 05:03:32;;;;;;;;;;;;;;;14.06;49.70;99580.59;5003163;28;19979;-73
2023/10/08 05:06:08;;;;;;;;;;;;;;;14.07;49.30;99587.84;5025211;28;19924;-74
2023/10/08 05:17:03;;;;;;;;;;;;;;;14.10;49.46;99581.50;5012607;28;20411;-73
2023/10/08 05:30:25;;;;;;;;;;;;;;;15.16;48.93;99568.31;5013397;28;19917;-73
2023/10/08 05:36:19;;;;;;;;;;;;;;;15.42;48.11;99564.09;5000264;28;20407;-73
2023/10/08 05:38:38;;;;;;;;;;;;;;;15.37;48.20;99564.41;5004401;28;20020;-73
2023/10/08 05:49:15;;;;;;;;;;;;;;;15.56;47.21;99566.44;4994455;28;19914;-73
2023/10/08 06:08:11;;;;;;;;;;;;;;;16.57;41.00;99590.41;5009954;28;20447;-73
2023/10/08 06:13:09;;;;;;;;;;;;;;;16.95;40.18;99580.22;4996788;28;19957;-71
2023/10/08 06:18:26;;;;;;;;;;;;;;;17.20;38.57;99579.88;5005677;28;20004;-73
2023/10/08 06:20:54;;;;;;;;;;;;;;;17.30;38.77;99588.91;5012630;28;19918;-72
2023/10/08 06:23:22;;;;;;;;;;;;;;;17.46;38.26;99574.66;4992904;28;19925;-71
2023/10/08 06:25:54;;;;;;;;;;;;;;;17.68;37.11;99579.44;5005521;28;19924;-72
2023/10/08 06:28:20;;;;;;;;;;;;;;;17.85;37.31;99579.25;5029697;28;19952;-72
2023/10/08 06:30:49;;;;;;;;;;;;;;;17.94;37.55;99589.09;5016064;28;19918;-72
2023/10/08 06:33:14;;;;;;;;;;;;;;;18.15;36.86;99575.66;5011606;28;19987;-72
2023/10/08 06:36:01;;;;;;;;;;;;;;;18.31;36.45;99573.44;5012783;28;20012;-72
2023/10/08 06:38:27;;;;;;;;;;;;;;;18.43;36.01;99574.38;5005516;28;19992;-69
2023/10/08 06:40:52;;;;;;;;;;;;;;;18.56;35.74;99572.09;5012626;28;19945;-73
2023/10/08 06:43:24;;;;;;;;;;;;;;;18.85;34.99;99570.41;5011983;28;19917;-73
2023/10/08 06:45:52;;;;;;;;;;;;;;;18.94;35.21;99573.72;5027524;28;19917;-73
2023/10/08 06:48:19;;;;;;;;;;;;;;;19.08;35.25;99569.44;5027125;28;19989;-70
2023/10/08 06:50:45;;;;;;;;;;;;;;;19.32;35.33;99564.38;5007241;28;20430;-73
2023/10/08 06:53:13;;;;;;;;;;;;;;;19.41;35.25;99564.03;5011125;28;20007;-70
2023/10/08 06:55:40;;;;;;;;;;;;;;;19.58;35.24;99556.88;5012378;28;19914;-74
2023/10/08 06:58:05;;;;;;;;;;;;;;;19.69;35.53;99562.59;5012413;28;20339;-73
2023/10/08 07:00:40;;;;;;;;;;;;;;;19.67;34.88;99560.16;5012340;28;19917;-73
2023/10/08 07:03:07;;;;;;;;;;;;;;;19.77;34.84;99556.56;5012247;28;19913;-73
2023/10/08 07:05:36;;;;;;;;;;;;;;;19.81;33.72;99559.44;5010358;28;19917;-72
2023/10/08 07:08:06;;;;;;;;;;;;;;;19.96;32.50;99551.84;5006246;28;19932;-72
2023/10/08 07:10:34;;;;;;;;;;;;;;;20.20;32.46;99546.69;5012323;28;20335;-73
2023/10/08 07:13:02;;;;;;;;;;;;;;;20.32;32.46;99554.03;5012112;28;19928;-73
2023/10/08 07:15:28;;;;;;;;;;;;;;;20.29;31.86;99555.66;5009974;28;20354;-72
2023/10/08 07:17:54;;;;;;;;;;;;;;;20.44;31.27;99553.66;5012035;28;19913;-73
2023/10/08 07:20:22;;;;;;;;;;;;;;;20.58;31.55;99549.25;5012205;28;19913;-73
2023/10/08 07:22:53;;;;;;;;;;;;;;;20.67;31.30;99551.72;5011997;28;19924;-73
2023/10/08 07:25:21;;;;;;;;;;;;;;;20.83;30.12;99551.38;4996541;28;19929;-73
2023/10/08 07:27:47;;;;;;;;;;;;;;;20.93;29.63;99546.91;4992391;28;20303;-73
2023/10/08 07:30:12;;;;;;;;;;;;;;;21.13;29.23;99551.00;4993694;28;19929;-73
2023/10/08 07:32:40;;;;;;;;;;;;;;;21.25;29.72;99546.13;5011536;28;19929;-73
2023/10/08 07:38:02;;;;;;;;;;;;;;;21.42;29.12;99539.59;4983593;28;20068;-72
2023/10/08 07:40:29;;;;;;;;;;;;;;;21.45;28.94;99537.97;4992302;28;19914;-72
2023/10/08 07:42:54;;;;;;;;;;;;;;;21.53;28.55;99533.88;5009981;28;20027;-72
2023/10/08 07:45:21;;;;;;;;;;;;;;;21.67;28.67;99527.41;5011030;28;20008;-73
2023/10/08 07:47:47;;;;;;;;;;;;;;;21.80;28.37;99521.25;5011323;28;19917;-73
2023/10/08 07:50:13;;;;;;;;;;;;;;;21.83;27.99;99523.28;4996265;28;20384;-72
2023/10/08 07:52:38;;;;;;;;;;;;;;;22.01;28.13;99524.03;5014956;28;19913;-72
2023/10/08 07:55:07;;;;;;;;;;;;;;;22.20;27.91;99529.66;5031030;28;19925;-73
2023/10/08 07:57:33;;;;;;;;;;;;;;;22.39;28.36;99532.03;5014202;28;19952;-73
2023/10/08 08:00:18;;;;;;;;;;;;;;;22.57;27.91;99531.97;5014356;28;20341;-73
2023/10/08 08:02:43;;;;;;;;;;;;;;;22.72;28.08;99529.03;5014290;28;19913;-73
2023/10/08 08:05:08;;;;;;;;;;;;;;;22.80;28.12;99515.53;5014582;28;19952;-73
2023/10/08 08:07:34;;;;;;;;;;;;;;;23.02;28.32;99512.50;4998805;28;20020;-73
2023/10/08 08:09:59;;;;;;;;;;;;;;;22.91;27.02;99507.69;5013909;28;19917;-73
2023/10/08 08:12:25;;;;;;;;;;;;;;;23.12;26.84;99509.56;5014354;28;19991;-73
2023/10/08 08:14:54;;;;;;;;;;;;;;;23.20;26.51;99509.50;5011549;28;20012;-74
2023/10/08 08:17:19;;;;;;;;;;;;;;;23.35;26.53;99498.78;5029565;28;19917;-73
2023/10/08 08:19:47;;;;;;;;;;;;;;;23.53;27.12;99502.28;5015358;28;19971;-73
2023/10/08 08:22:20;;;;;;;;;;;;;;;23.57;26.44;99493.69;5015358;28;20043;-73
2023/10/08 08:24:47;;;;;;;;;;;;;;;23.76;26.40;99491.44;5013728;28;19917;-73
2023/10/08 08:27:23;;;;;;;;;;;;;;;23.62;26.69;99493.22;5013958;28;20008;-73
2023/10/08 08:29:49;;;;;;;;;;;;;;;23.88;26.33;99490.88;5011855;28;20407;-73
2023/10/08 08:32:21;;;;;;;;;;;;;;;24.19;25.85;99490.94;5009008;28;19918;-73
2023/10/08 08:34:50;;;;;;;;;;;;;;;24.12;25.85;99482.47;5017909;28;19925;-71
2023/10/08 08:37:16;;;;;;;;;;;;;;;24.19;25.03;99482.38;5011371;28;19924;-71
2023/10/08 08:39:41;;;;;;;;;;;;;;;24.44;25.90;99474.72;5014763;28;20324;-70
2023/10/08 08:42:07;;;;;;;;;;;;;;;24.33;25.26;99471.97;5013613;28;19914;-74
2023/10/08 08:44:36;;;;;;;;;;;;;;;24.53;24.94;99472.91;5014738;28;19917;-71
2023/10/08 08:47:04;;;;;;;;;;;;;;;24.72;25.22;99472.66;5014539;28;20389;-74
2023/10/08 08:49:32;;;;;;;;;;;;;;;24.84;24.08;99471.25;5012697;28;19917;-72
2023/10/08 08:52:00;;;;;;;;;;;;;;;25.01;24.03;99460.75;5009439;28;19972;-71
2023/10/08 08:54:26;;;;;;;;;;;;;;;25.17;24.07;99460.91;5016022;28;19921;-71
2023/10/08 08:56:54;;;;;;;;;;;;;;;25.21;24.22;99453.03;5029662;28;19921;-74
2023/10/08 08:59:20;;;;;;;;;;;;;;;25.34;23.77;99458.97;5014583;28;19921;-70
2023/10/08 09:01:47;;;;;;;;;;;;;;;25.00;23.63;99456.28;5029727;28;19920;-74
2023/10/08 09:04:16;;;;;;;;;;;;;;;25.11;23.47;99453.25;5029666;28;20012;-71
2023/10/08 09:06:41;;;;;;;;;;;;;;;25.31;23.12;99439.78;5020969;28;20023;-73
2023/10/08 09:09:22;;;;;;;;;;;;;;;25.33;23.29;99437.28;5028632;28;20020;-72
2023/10/08 09:11:51;;;;;;;;;;;;;;;25.29;23.64;99438.63;5005642;28;19925;-72
2023/10/08 09:14:17;;;;;;;;;;;;;;;25.45;23.43;99420.69;5011154;28;19925;-72
2023/10/08 09:16:43;;;;;;;;;;;;;;;25.76;23.32;99423.41;5011374;28;20412;-72
2023/10/08 09:19:16;;;;;;;;;;;;;;;25.81;23.36;99414.28;5011248;28;19926;-72
2023/10/08 09:21:41;;;;;;;;;;;;;;;25.92;23.18;99425.53;5004155;28;19921;-72
2023/10/08 09:24:10;;;;;;;;;;;;;;;26.08;23.09;99419.03;5025385;28;19933;-72
2023/10/08 09:26:37;;;;;;;;;;;;;;;25.82;22.99;99418.75;5008962;28;19921;-72
2023/10/08 09:29:04;;;;;;;;;;;;;;;25.95;23.68;99423.84;5010089;28;19914;-72
2023/10/08 09:31:35;;;;;;;;;;;;;;;26.04;23.54;99413.38;5009501;28;20004;-73
2023/10/08 09:34:02;;;;;;;;;;;;;;;26.27;23.52;99416.59;5007894;28;20403;-73
2023/10/08 09:36:31;;;;;;;;;;;;;;;26.54;23.22;99404.06;5026256;28;20277;-72
2023/10/08 09:39:00;;;;;;;;;;;;;;;26.47;23.33;99396.47;5008921;28;20396;-72
2023/10/08 09:41:28;;;;;;;;;;;;;;;26.51;23.54;99400.06;5007605;28;19928;-74
2023/10/08 09:43:54;;;;;;;;;;;;;;;26.53;23.45;99399.59;5009427;28;19940;-72
2023/10/08 09:46:20;;;;;;;;;;;;;;;26.61;23.18;99386.72;5000147;28;19921;-72
2023/10/08 09:48:52;;;;;;;;;;;;;;;26.58;23.51;99393.34;4998707;28;19925;-72
2023/10/08 09:51:18;;;;;;;;;;;;;;;26.61;23.37;99384.66;5010506;28;19921;-72
2023/10/08 09:54:02;;;;;;;;;;;;;;;26.71;23.25;99388.50;5011218;28;19924;-72
2023/10/08 09:56:28;;;;;;;;;;;;;;;26.76;23.56;99385.09;5025394;28;19976;-76
2023/10/08 09:58:54;;;;;;;;;;;;;;;27.07;23.53;99395.38;5009381;28;19917;-72
2023/10/08 10:01:20;;;;;;;;;;;;;;;27.04;23.27;99388.50;5003942;28;19924;-73
2023/10/08 10:03:45;;;;;;;;;;;;;;;26.94;23.43;99383.03;5009350;28;19922;-73
2023/10/08 10:06:15;;;;;;;;;;;;;;;27.17;23.10;99379.94;5008702;28;19925;-73
2023/10/08 10:08:44;;;;;;;;;;;;;;;26.56;23.17;99379.44;5025700;28;20756;-73
2023/10/08 10:11:10;;;;;;;;;;;;;;;26.55;23.22;99374.19;5009694;28;19918;-72
2023/10/08 10:13:40;;;;;;;;;;;;;;;26.43;23.50;99373.63;5002576;28;19922;-72
2023/10/08 10:16:07;;;;;;;;;;;;;;;26.37;23.78;99368.84;5003237;28;20381;-72
2023/10/08 10:18:33;;;;;;;;;;;;;;;26.30;24.25;99369.84;5009411;28;19971;-72
2023/10/08 10:21:03;;;;;;;;;;;;;;;26.17;24.45;99364.78;5010648;28;19913;-74
2023/10/08 10:23:37;;;;;;;;;;;;;;;26.17;24.50;99361.91;5008004;28;19921;-72
2023/10/08 10:26:03;;;;;;;;;;;;;;;26.71;23.95;99359.81;5009978;28;19924;-73
2023/10/08 10:28:29;;;;;;;;;;;;;;;26.83;23.60;99351.75;5004732;28;19917;-71
2023/10/08 10:30:55;;;;;;;;;;;;;;;27.13;23.94;99353.41;5020752;28;20372;-71
2023/10/08 10:33:21;;;;;;;;;;;;;;;27.25;23.23;99340.34;5008965;28;19927;-73
2023/10/08 10:35:52;;;;;;;;;;;;;;;27.52;23.17;99339.19;5023326;28;19917;-73
2023/10/08 10:38:22;;;;;;;;;;;;;;;27.27;23.68;99331.31;5011259;28;19924;-73
2023/10/08 10:40:56;;;;;;;;;;;;;;;27.55;23.41;99323.94;5002348;28;20415;-72
2023/10/08 10:43:28;;;;;;;;;;;;;;;27.53;22.93;99312.13;5011159;28;19917;-73
2023/10/08 10:45:56;;;;;;;;;;;;;;;27.68;22.95;99309.59;5009845;28;20316;-75
2023/10/08 10:48:22;;;;;;;;;;;;;;;27.51;23.02;99305.19;5008581;28;19925;-74
2023/10/08 10:51:08;;;;;;;;;;;;;;;27.30;24.20;99302.50;5009954;28;20296;-73
2023/10/08 10:53:44;;;;;;;;;;;;;;;27.23;24.11;99307.66;5011472;28;19939;-74
2023/10/08 10:56:11;;;;;;;;;;;;;;;27.02;23.88;99299.16;5010823;28;19917;-74
2023/10/08 10:58:39;;;;;;;;;;;;;;;27.04;24.51;99313.06;5011877;28;19952;-74
2023/10/08 11:01:21;;;;;;;;;;;;;;;27.19;24.16;99302.00;5010748;28;20004;-73
2023/10/08 11:03:48;;;;;;;;;;;;;;;27.42;23.72;99297.25;4999207;28;20400;-74
2023/10/08 11:06:22;;;;;;;;;;;;;;;27.55;23.62;99298.09;4990697;28;20373;-74
2023/10/08 11:08:48;;;;;;;;;;;;;;;27.75;23.77;99291.34;5011457;28;19920;-74
2023/10/08 11:11:17;;;;;;;;;;;;;;;27.56;24.07;99298.88;5010601;28;19924;-73
2023/10/08 11:13:42;;;;;;;;;;;;;;;27.45;24.05;99288.53;5010169;28;20320;-74
2023/10/08 11:16:13;;;;;;;;;;;;;;;27.91;23.46;99286.75;5011501;28;19914;-74
2023/10/08 11:18:43;;;;;;;;;;;;;;;27.83;23.58;99280.44;5010686;28;19921;-74
2023/10/08 11:21:15;;;;;;;;;;;;;;;27.83;22.94;99283.31;4997326;28;19925;-74
2023/10/08 11:24:09;;;;;;;;;;;;;;;27.94;23.35;99283.78;5008952;28;20433;-74
2023/10/08 11:26:38;;;;;;;;;;;;;;;27.84;23.79;99284.94;5009433;28;19917;-74
2023/10/08 11:29:05;;;;;;;;;;;;;;;27.96;24.03;99281.25;5010098;28;20045;-74
2023/10/08 11:31:33;;;;;;;;;;;;;;;28.14;23.41;99276.97;5011332;28;19913;-74
2023/10/08 11:34:00;;;;;;;;;;;;;;;28.03;23.65;99277.34;5009761;28;19917;-74
2023/10/08 11:36:31;;;;;;;;;;;;;;;28.22;23.31;99272.63;4996476;28;19940;-73
2023/10/08 11:39:08;;;;;;;;;;;;;;;28.34;23.33;99265.22;4994550;28;19925;-74
2023/10/08 11:41:49;;;;;;;;;;;;;;;28.26;23.54;99255.25;5010353;28;19921;-74
2023/10/08 11:44:19;;;;;;;;;;;;;;;27.95;23.47;99268.16;5011204;28;20297;-73
2023/10/08 11:46:45;;;;;;;;;;;;;;;27.82;23.67;99250.91;5009856;28;20399;-74
2023/10/08 11:49:17;;;;;;;;;;;;;;;27.84;23.82;99253.31;5010002;28;19913;-74
2023/10/08 11:51:43;;;;;;;;;;;;;;;28.11;23.23;99255.69;5001290;28;19925;-74
2023/10/08 11:54:11;;;;;;;;;;;;;;;28.34;22.89;99250.06;5010181;28;19917;-74
2023/10/08 11:56:38;;;;;;;;;;;;;;;28.36;23.04;99239.72;5010131;28;19917;-75
2023/10/08 11:59:08;;;;;;;;;;;;;;;28.56;23.01;99238.59;5010683;28;20360;-74
2023/10/08 12:01:35;;;;;;;;;;;;;;;28.49;23.01;99227.38;5006625;28;20458;-74
2023/10/08 12:04:01;;;;;;;;;;;;;;;28.69;22.71;99233.59;5011241;28;19936;-74
2023/10/08 12:06:29;;;;;;;;;;;;;;;28.50;22.57;99221.13;5010932;28;19913;-74
2023/10/08 12:08:58;;;;;;;;;;;;;;;28.55;23.17;99216.88;5005593;28;19971;-74
2023/10/08 12:11:30;;;;;;;;;;;;;;;28.61;23.15;99219.94;5009836;28;20460;-74
2023/10/08 12:13:56;;;;;;;;;;;;;;;28.75;22.96;99205.03;5009425;28;20408;-74
2023/10/08 12:16:22;;;;;;;;;;;;;;;28.48;22.85;99206.44;5010282;28;19917;-74
2023/10/08 12:18:48;;;;;;;;;;;;;;;28.67;22.64;99204.50;5006322;28;19924;-74
2023/10/08 12:21:15;;;;;;;;;;;;;;;28.52;22.77;99207.09;5005494;28;20011;-75
2023/10/08 12:23:43;;;;;;;;;;;;;;;28.55;22.60;99197.56;4998995;28;19918;-74
2023/10/08 12:26:08;;;;;;;;;;;;;;;28.59;22.41;99197.41;5024348;28;19922;-74
2023/10/08 12:28:42;;;;;;;;;;;;;;;28.22;22.62;99208.56;5008624;28;19936;-74
2023/10/08 12:31:10;;;;;;;;;;;;;;;28.18;22.75;99208.72;5008382;28;19917;-74
2023/10/08 12:33:35;;;;;;;;;;;;;;;28.25;22.45;99199.03;5013425;28;19920;-74
2023/10/08 12:36:10;;;;;;;;;;;;;;;28.41;22.85;99193.09;5012899;28;19917;-74
2023/10/08 12:38:36;;;;;;;;;;;;;;;28.60;22.40;99193.28;5010180;28;19920;-74
2023/10/08 12:41:08;;;;;;;;;;;;;;;28.44;22.29;99189.28;5008594;28;19921;-74
2023/10/08 12:43:37;;;;;;;;;;;;;;;28.66;22.07;99191.41;5013670;28;19940;-75
2023/10/08 12:46:04;;;;;;;;;;;;;;;28.76;21.82;99200.88;5013382;28;19914;-75
2023/10/08 12:48:29;;;;;;;;;;;;;;;28.82;22.20;99201.13;5013314;28;19921;-75
2023/10/08 12:50:57;;;;;;;;;;;;;;;28.71;22.20;99199.41;5013131;28;19913;-76
2023/10/08 12:53:50;;;;;;;;;;;;;;;28.54;22.48;99198.00;4994976;28;20072;-73
2023/10/08 12:56:14;;;;;;;;;;;;;;;28.33;22.56;99190.97;4998953;28;19958;-71
2023/10/08 12:58:48;;;;;;;;;;;;;;;28.39;22.75;99189.91;5000483;28;20012;-77
2023/10/08 13:01:19;;;;;;;;;;;;;;;28.61;22.34;99186.25;5010036;28;19913;-74
2023/10/08 13:03:48;;;;;;;;;;;;;;;28.14;22.65;99191.56;5006548;28;19925;-76
2023/10/08 13:06:28;;;;;;;;;;;;;;;28.13;22.95;99189.94;5014393;28;19921;-76
2023/10/08 13:08:53;;;;;;;;;;;;;;;28.10;22.94;99178.56;5014353;28;19914;-74
2023/10/08 13:11:22;;;;;;;;;;;;;;;27.89;23.31;99175.97;5013154;28;19925;-78
2023/10/08 13:13:51;;;;;;;;;;;;;;;27.85;23.23;99185.97;5008689;28;19980;-77
2023/10/08 13:16:17;;;;;;;;;;;;;;;28.07;23.38;99174.53;5014181;28;19921;-77
2023/10/08 13:18:43;;;;;;;;;;;;;;;28.14;23.23;99180.06;5012861;28;19975;-76
2023/10/08 13:21:09;;;;;;;;;;;;;;;27.98;23.43;99185.94;5012839;28;19917;-75
2023/10/08 13:23:35;;;;;;;;;;;;;;;28.00;23.57;99186.31;5013933;28;19918;-77
2023/10/08 13:26:04;;;;;;;;;;;;;;;28.12;23.62;99191.22;5012773;28;20368;-74
2023/10/08 13:28:29;;;;;;;;;;;;;;;28.06;23.50;99189.41;5012261;28;19924;-74
2023/10/08 13:30:55;;;;;;;;;;;;;;;28.14;23.38;99182.13;5000885;28;19918;-75
2023/10/08 13:33:22;;;;;;;;;;;;;;;28.26;23.71;99171.88;5008511;28;20669;-75
2023/10/08 13:35:49;;;;;;;;;;;;;;;28.32;23.84;99178.63;5011682;28;20308;-74
2023/10/08 13:38:16;;;;;;;;;;;;;;;28.27;23.60;99173.50;5012804;28;19922;-75
2023/10/08 13:41:01;;;;;;;;;;;;;;;28.40;23.40;99162.75;5012969;28;19956;-76
2023/10/08 13:43:33;;;;;;;;;;;;;;;28.54;23.94;99152.81;5013732;28;19963;-77
2023/10/08 13:45:59;;;;;;;;;;;;;;;28.61;23.56;99169.00;4997663;28;19933;-75
2023/10/08 13:48:24;;;;;;;;;;;;;;;28.58;23.41;99161.28;5000982;28;20016;-72
2023/10/08 13:50:50;;;;;;;;;;;;;;;28.55;23.75;99151.53;5012426;28;20056;-74
2023/10/08 13:53:15;;;;;;;;;;;;;;;28.50;23.82;99152.13;5011813;28;19917;-71
2023/10/08 13:55:45;;;;;;;;;;;;;;;28.61;24.11;99157.50;5013713;28;19917;-72
2023/10/08 13:58:10;;;;;;;;;;;;;;;28.60;23.94;99147.25;5011097;28;20443;-76
2023/10/08 14:00:37;;;;;;;;;;;;;;;28.68;24.23;99144.91;5003165;28;20012;-73
2023/10/08 14:03:07;;;;;;;;;;;;;;;28.64;24.05;99158.59;5011235;28;19917;-73